Time;durP1;ratioP1;P1;durP2;ratioP2;P2;SDS_P1;SDS_P2;PMS_P1;PMS_P2;Temp;Humidity;BMP_temperature;BMP_pressure;BME280_temperature;BME280_humidity;BME280_pressure;Samples;Min_cycle;Max_cycle;Signal;HPM_P1;HPM_P2
2023/04/16 00:01:05;;;;;;;26.17;20.27;;;9.20;99.90;;;-141.84;100.00;18860.78;5073512;28;20224;-73
2023/04/16 00:03:33;;;;;;;24.70;19.97;;;9.20;99.90;;;-141.84;100.00;18885.16;5073420;28;20319;-71
2023/04/16 00:06:02;;;;;;;23.33;19.77;;;9.20;99.90;;;-141.84;100.00;18893.28;5073154;28;20795;-70
2023/04/16 00:08:30;;;;;;;24.70;19.90;;;9.20;99.90;;;-141.84;100.00;18891.25;5073396;28;20212;-70
2023/04/16 00:11:00;;;;;;;23.90;19.97;;;9.20;99.90;;;-141.84;100.00;18891.25;5073180;28;20238;-70
2023/04/16 00:13:28;;;;;;;24.90;19.87;;;9.20;99.90;;;-141.84;100.00;18860.78;5072743;28;20212;-70
2023/04/16 00:15:56;;;;;;;26.53;20.80;;;9.20;99.90;;;-141.84;100.00;18848.59;5053092;28;20668;-69
2023/04/16 00:18:25;;;;;;;23.90;19.50;;;9.20;99.90;;;-141.84;100.00;18848.59;5053170;28;20201;-69
2023/04/16 00:20:53;;;;;;;23.60;18.77;;;9.20;99.90;;;-141.84;100.00;18838.44;5052839;28;20212;-70
2023/04/16 00:23:23;;;;;;;22.73;18.80;;;9.20;99.90;;;-141.84;100.00;18842.50;5052985;28;20201;-70
2023/04/16 00:25:52;;;;;;;22.60;18.00;;;9.10;99.90;;;-141.84;100.00;18832.34;5053097;28;20196;-71
2023/04/16 00:28:22;;;;;;;25.23;19.60;;;9.10;99.90;;;-141.84;100.00;18844.53;5054442;28;20541;-69
2023/04/16 00:30:50;;;;;;;24.17;19.87;;;9.20;99.90;;;-141.84;100.00;18677.91;5072777;28;20216;-69
2023/04/16 00:33:18;;;;;;;25.30;19.83;;;9.10;99.90;;;-141.84;100.00;18797.78;5072873;28;20239;-69
2023/04/16 00:35:47;;;;;;;26.53;20.73;;;9.20;99.90;;;-141.84;100.00;18635.25;5072547;28;20208;-68
2023/04/16 00:38:15;;;;;;;29.13;21.60;;;9.20;99.90;;;-141.84;100.00;18616.97;5061588;28;20204;-69
2023/04/16 00:40:43;;;;;;;28.13;22.07;;;9.20;99.90;;;-141.84;100.00;18614.94;5052779;28;20221;-69
2023/04/16 00:43:11;;;;;;;28.40;22.67;;;9.20;99.90;;;-141.84;100.00;18580.41;5032169;28;20237;-70
2023/04/16 00:45:41;;;;;;;28.80;22.20;;;9.20;99.90;;;-141.84;100.00;18600.72;5032527;28;20198;-69
2023/04/16 00:48:09;;;;;;;29.07;22.53;;;9.30;99.90;;;-141.84;100.00;18616.97;5031890;28;20213;-69
2023/04/16 00:50:37;;;;;;;29.03;22.43;;;9.30;99.90;;;-141.84;100.00;18629.16;5032233;28;20659;-69
2023/04/16 00:53:06;;;;;;;26.93;20.80;;;9.30;99.90;;;-141.84;100.00;18653.53;5031444;28;20206;-70
2023/04/16 00:55:34;;;;;;;26.20;20.57;;;9.30;99.90;;;-141.84;100.00;18623.06;5032393;28;20225;-69
2023/04/16 00:58:03;;;;;;;27.23;21.67;;;9.30;99.90;;;-141.84;100.00;18596.66;5034181;28;20202;-69
2023/04/16 01:00:31;;;;;;;25.13;20.37;;;9.30;99.90;;;-141.84;100.00;18606.81;5071875;28;20204;-69
2023/04/16 01:03:01;;;;;;;27.07;20.73;;;9.30;99.90;;;-141.84;100.00;18633.22;5072369;28;20192;-72
2023/04/16 01:05:30;;;;;;;29.10;21.47;;;9.30;99.90;;;-141.84;100.00;18610.88;5072285;28;20200;-70
2023/04/16 01:08:00;;;;;;;26.87;20.63;;;9.30;99.90;;;-141.84;100.00;18616.97;5072341;28;20215;-70
2023/04/16 01:10:28;;;;;;;27.70;21.07;;;9.30;99.90;;;-141.84;100.00;18629.16;5072210;28;20200;-69
2023/04/16 01:12:56;;;;;;;26.20;19.67;;;9.30;99.90;;;-141.84;100.00;18616.97;5071606;28;20228;-70
2023/04/16 01:15:24;;;;;;;27.10;21.03;;;9.30;99.90;;;-141.84;100.00;18635.25;5055015;28;20669;-70
2023/04/16 01:17:53;;;;;;;25.40;19.87;;;9.30;99.90;;;-141.84;100.00;18574.28;5051759;28;20683;-70
2023/04/16 01:20:22;;;;;;;27.07;20.50;;;9.30;99.90;;;-141.84;100.00;18614.94;5051779;28;20748;-70
2023/04/16 01:22:52;;;;;;;25.17;19.60;;;9.30;99.90;;;-141.84;100.00;18600.72;5051992;28;20197;-69
2023/04/16 01:25:20;;;;;;;27.00;19.97;;;9.20;99.90;;;-141.84;100.00;18590.56;5051975;28;20628;-69
2023/04/16 01:27:50;;;;;;;26.63;19.50;;;9.20;99.90;;;-141.84;100.00;18608.84;5051503;28;20212;-69
2023/04/16 01:30:18;;;;;;;27.53;19.77;;;9.20;99.90;;;-141.84;100.00;18614.94;5069142;28;20204;-70
2023/04/16 01:32:46;;;;;;;23.47;18.20;;;9.20;99.90;;;-141.84;100.00;18608.84;5071930;28;20660;-70
2023/04/16 01:35:16;;;;;;;25.37;19.03;;;9.20;99.90;;;-141.84;100.00;18582.44;5072022;28;20235;-70
2023/04/16 01:37:45;;;;;;;24.20;17.90;;;9.30;99.90;;;-141.84;100.00;18590.56;5071706;28;20775;-70
2023/04/16 01:40:14;;;;;;;22.70;17.77;;;9.20;99.90;;;-141.84;100.00;18604.78;5071562;28;20204;-70
2023/04/16 01:42:42;;;;;;;24.53;17.57;;;9.20;99.90;;;-141.84;100.00;18625.09;5038925;28;20591;-69
2023/04/16 01:45:12;;;;;;;23.77;17.33;;;9.20;99.90;;;-141.84;100.00;18614.94;5031522;28;20224;-70
2023/04/16 01:47:40;;;;;;;21.43;16.70;;;9.20;99.90;;;-141.84;100.00;18572.25;5031492;28;20713;-70
2023/04/16 01:50:10;;;;;;;21.30;17.03;;;9.20;99.90;;;-141.84;100.00;18627.13;5031556;28;20297;-70
2023/04/16 01:52:38;;;;;;;18.83;16.17;;;9.20;99.90;;;-141.84;100.00;18627.13;5031611;28;20252;-71
2023/04/16 01:55:07;;;;;;;19.70;16.50;;;9.20;99.90;;;-141.84;100.00;18590.56;5031726;28;20209;-69
2023/04/16 01:57:37;;;;;;;22.57;17.17;;;9.20;99.90;;;-141.84;100.00;18643.38;5031137;28;20210;-71
2023/04/16 02:00:07;;;;;;;18.83;15.90;;;9.20;99.90;;;-141.84;100.00;18598.69;5063461;28;20223;-70
2023/04/16 02:02:36;;;;;;;20.07;15.83;;;9.20;99.90;;;-141.84;100.00;18635.25;5071934;28;20197;-69
2023/04/16 02:05:05;;;;;;;20.13;16.07;;;9.20;99.90;;;-141.84;100.00;18635.25;5071582;28;20201;-69
2023/04/16 02:07:33;;;;;;;18.67;15.03;;;9.20;99.90;;;-141.84;100.00;18594.63;5071278;28;20565;-70
2023/04/16 02:10:02;;;;;;;18.67;15.43;;;9.20;99.90;;;-141.84;100.00;18590.56;5071557;28;20203;-69
2023/04/16 02:12:30;;;;;;;17.67;14.43;;;9.20;99.90;;;-141.84;100.00;18608.84;5071260;28;20220;-69
2023/04/16 02:15:00;;;;;;;17.00;13.90;;;9.20;99.90;;;-141.84;100.00;18610.88;5059276;28;20299;-70
2023/04/16 02:17:28;;;;;;;15.77;13.13;;;9.20;99.90;;;-141.84;100.00;18619.00;5052038;28;20186;-69
2023/04/16 02:19:56;;;;;;;16.23;13.33;;;9.10;99.90;;;-141.84;100.00;18619.00;5051713;28;20204;-70
2023/04/16 02:22:24;;;;;;;16.37;13.37;;;9.20;99.90;;;-141.84;100.00;18623.06;5051212;28;20206;-70
2023/04/16 02:24:53;;;;;;;18.53;14.63;;;9.10;99.90;;;-141.84;100.00;18602.75;5051361;28;20562;-70
2023/04/16 02:27:21;;;;;;;16.17;13.43;;;9.10;99.90;;;-141.84;100.00;18612.91;5054837;28;20221;-71
2023/04/16 02:29:49;;;;;;;15.57;12.33;;;9.10;99.90;;;-141.84;100.00;18631.19;5068475;28;20576;-70
2023/04/16 02:32:18;;;;;;;14.23;12.00;;;9.10;99.90;;;-141.84;100.00;18639.31;5075057;28;20231;-71
2023/04/16 02:34:47;;;;;;;15.83;12.50;;;9.10;99.90;;;-141.84;100.00;18600.72;5075001;28;20262;-59
2023/04/16 02:37:15;;;;;;;18.83;15.00;;;9.10;99.90;;;-141.84;100.00;18610.88;5074871;28;20197;-59
2023/04/16 02:39:43;;;;;;;15.13;12.57;;;9.00;99.90;;;-141.84;100.00;18643.38;5074923;28;20207;-59
2023/04/16 02:42:12;;;;;;;18.60;14.93;;;9.00;99.90;;;-141.84;100.00;18619.00;5050735;28;20210;-59
2023/04/16 02:44:40;;;;;;;17.17;12.67;;;9.10;99.90;;;-141.84;100.00;18629.16;5034222;28;20713;-59
2023/04/16 02:47:08;;;;;;;15.57;12.83;;;9.10;99.90;;;-141.84;100.00;18627.13;5034614;28;20206;-62
2023/04/16 02:49:37;;;;;;;14.53;11.80;;;9.10;99.90;;;-141.84;100.00;18594.63;5034864;28;20206;-58
2023/04/16 02:52:06;;;;;;;16.20;12.90;;;9.10;99.90;;;-141.84;100.00;18602.75;5034460;28;20694;-58
2023/04/16 02:54:34;;;;;;;15.80;13.03;;;9.10;99.90;;;-141.84;100.00;18604.78;5035086;28;20213;-58
2023/04/16 02:57:02;;;;;;;15.83;12.70;;;9.10;99.90;;;-141.84;100.00;18592.59;5034660;28;20252;-59
2023/04/16 02:59:30;;;;;;;17.03;12.80;;;9.10;99.90;;;-141.84;100.00;18588.53;5056514;28;20248;-60
2023/04/16 03:01:58;;;;;;;15.60;13.00;;;9.10;99.90;;;-141.84;100.00;18612.91;5074224;28;20201;-57
2023/04/16 03:04:26;;;;;;;15.70;12.33;;;9.10;99.90;;;-141.84;100.00;18590.56;5074515;28;20255;-60
2023/04/16 03:06:56;;;;;;;16.37;13.10;;;9.10;99.90;;;-141.84;100.00;18600.72;5074441;28;20564;-58
2023/04/16 03:09:24;;;;;;;15.47;12.77;;;9.10;99.90;;;-141.84;100.00;18590.56;5074661;28;20197;-59
2023/04/16 03:11:52;;;;;;;16.90;13.77;;;9.10;99.90;;;-141.84;100.00;18619.00;5074235;28;20211;-62
2023/04/16 03:14:21;;;;;;;15.93;12.47;;;9.10;99.90;;;-141.84;100.00;18580.41;5066277;28;20205;-58
2023/04/16 03:16:49;;;;;;;16.90;13.47;;;9.10;99.90;;;-141.84;100.00;18566.16;5054317;28;20212;-57
2023/04/16 03:19:17;;;;;;;15.60;12.37;;;9.10;99.90;;;-141.84;100.00;18588.53;5054238;28;20201;-59
2023/04/16 03:21:45;;;;;;;19.67;14.43;;;9.10;99.90;;;-141.84;100.00;18606.81;5054061;28;20205;-59
2023/04/16 03:24:15;;;;;;;18.77;13.83;;;9.10;99.90;;;-141.84;100.00;18600.72;5053752;28;20198;-59
2023/04/16 03:26:43;;;;;;;19.40;14.20;;;9.10;99.90;;;-141.84;100.00;18598.69;5054107;28;20201;-60
2023/04/16 03:29:11;;;;;;;17.43;14.80;;;9.20;99.90;;;-141.84;100.00;18614.94;5062236;28;20209;-59
2023/04/16 03:31:40;;;;;;;15.60;12.40;;;9.20;99.90;;;-141.84;100.00;18600.72;5073982;28;20201;-59
2023/04/16 03:34:08;;;;;;;18.40;13.53;;;9.10;99.90;;;-141.84;100.00;18612.91;5073725;28;20250;-59
2023/04/16 03:36:36;;;;;;;15.77;12.53;;;9.10;99.90;;;-141.84;100.00;18610.88;5073592;28;20619;-59
2023/04/16 03:39:04;;;;;;;17.37;13.43;;;9.10;99.90;;;-141.84;100.00;18612.91;5073885;28;20208;-60
2023/04/16 03:41:34;;;;;;;15.47;12.90;;;9.10;99.90;;;-141.84;100.00;18610.88;5060950;28;20206;-59
2023/04/16 03:44:02;;;;;;;14.03;12.23;;;9.10;99.90;;;-141.84;100.00;18635.25;5033376;28;20333;-59
2023/04/16 03:46:30;;;;;;;13.67;11.13;;;9.10;99.90;;;-141.84;100.00;18590.56;5033638;28;20595;-59
2023/04/16 03:48:58;;;;;;;12.10;10.63;;;9.00;99.90;;;-141.84;100.00;18580.41;5033599;28;20206;-59
2023/04/16 03:51:26;;;;;;;11.07;9.33;;;9.00;99.90;;;-141.84;100.00;18578.38;5033726;28;20198;-59
2023/04/16 03:53:54;;;;;;;10.60;9.50;;;9.00;99.90;;;-141.84;100.00;18596.66;5033213;28;20233;-59
2023/04/16 03:56:23;;;;;;;10.73;9.40;;;9.00;99.90;;;-141.84;100.00;18592.59;5033819;28;20271;-59
2023/04/16 03:58:52;;;;;;;11.17;9.70;;;9.00;99.90;;;-141.84;100.00;18592.59;5045048;28;20216;-59
2023/04/16 04:01:20;;;;;;;12.40;10.43;;;9.00;99.90;;;-141.84;100.00;18590.56;5073319;28;20200;-59
2023/04/16 04:03:48;;;;;;;12.00;10.23;;;9.00;99.90;;;-141.84;100.00;18604.78;5073572;28;20201;-60
2023/04/16 04:06:17;;;;;;;12.47;9.63;;;9.00;99.90;;;-141.84;100.00;18616.97;5073447;28;20291;-58
2023/04/16 04:08:45;;;;;;;10.63;9.53;;;9.00;99.90;;;-141.84;100.00;18639.31;5073022;28;20216;-60
2023/04/16 04:11:13;;;;;;;12.10;10.13;;;9.00;99.90;;;-141.84;100.00;18604.78;5072985;28;20201;-60
2023/04/16 04:13:41;;;;;;;12.07;10.43;;;9.00;99.90;;;-141.84;100.00;18592.59;5070834;28;20227;-61
2023/04/16 04:16:11;;;;;;;12.77;10.40;;;9.00;99.90;;;-141.84;100.00;18564.13;5053116;28;20209;-61
2023/04/16 04:18:39;;;;;;;13.33;11.33;;;9.00;99.90;;;-141.84;100.00;18612.91;5053331;28;20303;-59
2023/04/16 04:21:08;;;;;;;13.30;11.13;;;9.00;99.90;;;-141.84;100.00;18576.31;5052779;28;20247;-59
2023/04/16 04:23:37;;;;;;;13.33;11.60;;;9.00;99.90;;;-141.84;100.00;18566.16;5052849;28;20661;-60
2023/04/16 04:26:06;;;;;;;12.10;10.20;;;9.00;99.90;;;-141.84;100.00;18610.88;5053002;28;20197;-59
2023/04/16 04:28:35;;;;;;;14.17;11.50;;;9.00;99.90;;;-141.84;100.00;18580.41;5056242;28;20674;-59
2023/04/16 04:31:03;;;;;;;11.50;10.07;;;9.00;99.90;;;-141.84;100.00;18600.72;5072518;28;20204;-58
2023/04/16 04:33:33;;;;;;;13.10;10.83;;;9.00;99.90;;;-141.84;100.00;18586.50;5072750;28;20217;-59
2023/04/16 04:36:01;;;;;;;11.43;10.23;;;9.00;99.90;;;-141.84;100.00;18586.50;5072720;28;20215;-58
2023/04/16 04:38:30;;;;;;;13.20;10.50;;;9.00;99.90;;;-141.84;100.00;18598.69;5072707;28;20231;-59
2023/04/16 04:40:59;;;;;;;11.87;10.40;;;9.00;99.90;;;-141.84;100.00;18590.56;5069124;28;20207;-60
2023/04/16 04:43:27;;;;;;;12.07;9.83;;;9.00;99.90;;;-141.84;100.00;18590.56;5032325;28;20233;-59
2023/04/16 04:45:55;;;;;;;13.43;10.73;;;9.00;99.90;;;-141.84;100.00;18582.44;5032222;28;20202;-61
2023/04/16 04:48:25;;;;;;;12.93;10.67;;;9.00;99.90;;;-141.84;100.00;18578.38;5032051;28;20209;-59
2023/04/16 04:50:55;;;;;;;12.13;10.43;;;9.00;99.90;;;-141.84;100.00;18568.19;5032661;28;20182;-61
2023/04/16 04:53:23;;;;;;;14.90;12.00;;;9.00;99.90;;;-141.84;100.00;18610.88;5032184;28;20225;-59
2023/04/16 04:55:51;;;;;;;13.43;11.27;;;9.00;99.90;;;-141.84;100.00;18594.63;5032491;28;20617;-59
2023/04/16 04:58:25;;;;;;;13.50;10.93;;;9.00;99.90;;;-141.84;100.00;18564.13;5036413;28;20186;-59
2023/04/16 05:00:53;;;;;;;12.93;10.83;;;9.10;99.90;;;-141.84;100.00;18592.59;5071815;28;20208;-60
2023/04/16 05:03:22;;;;;;;12.40;10.43;;;9.10;99.90;;;-141.84;100.00;18574.28;5072027;28;20744;-59
2023/04/16 05:05:50;;;;;;;11.73;10.00;;;9.10;99.90;;;-141.84;100.00;18600.72;5071890;28;20201;-59
2023/04/16 05:08:21;;;;;;;11.30;9.13;;;9.10;99.90;;;-141.84;100.00;18574.28;5071821;28;20258;-59
2023/04/16 05:10:49;;;;;;;9.63;8.63;;;9.10;99.90;;;-141.84;100.00;18647.44;5072136;28;20196;-59
2023/04/16 05:13:17;;;;;;;10.30;9.20;;;9.10;99.90;;;-141.84;100.00;18602.75;5071886;28;20227;-59
2023/04/16 05:15:45;;;;;;;11.50;9.47;;;9.10;99.90;;;-141.84;100.00;18594.63;5052506;28;20208;-59
2023/04/16 05:18:14;;;;;;;10.73;9.27;;;9.10;99.90;;;-141.84;100.00;18610.88;5051962;28;20288;-58
2023/04/16 05:20:42;;;;;;;10.73;8.67;;;9.10;99.90;;;-141.84;100.00;18570.22;5051882;28;20209;-59
2023/04/16 05:23:10;;;;;;;9.07;8.03;;;9.10;99.90;;;-141.84;100.00;18614.94;5051974;28;20206;-60
2023/04/16 05:25:40;;;;;;;8.20;7.40;;;9.10;99.90;;;-141.84;100.00;18572.25;5051800;28;20566;-60
2023/04/16 05:28:09;;;;;;;9.77;8.20;;;9.10;99.90;;;-141.84;100.00;18586.50;5051516;28;20197;-59
2023/04/16 05:30:38;;;;;;;9.70;8.43;;;9.20;99.90;;;-141.84;100.00;18635.25;5031688;28;20210;-58
2023/04/16 05:33:06;;;;;;;9.93;8.20;;;9.20;99.90;;;-141.84;100.00;18602.75;5031857;28;20210;-59
2023/04/16 05:35:34;;;;;;;9.27;8.23;;;9.20;99.90;;;-141.84;100.00;18637.28;5031903;28;20205;-58
2023/04/16 05:38:04;;;;;;;10.10;8.57;;;9.10;99.90;;;-141.84;100.00;18592.59;5031510;28;20216;-60
2023/04/16 05:40:32;;;;;;;9.57;8.43;;;9.10;99.90;;;-141.84;100.00;18586.50;5031794;28;20205;-61
2023/04/16 05:43:01;;;;;;;9.60;8.33;;;9.20;99.90;;;-141.84;100.00;18623.06;5031335;28;20238;-58
2023/04/16 05:45:32;;;;;;;10.70;8.80;;;9.20;99.90;;;-141.84;100.00;18604.78;5031584;28;20593;-58
2023/04/16 05:48:00;;;;;;;11.67;9.30;;;9.20;99.90;;;-141.84;100.00;18639.31;5031647;28;20186;-60
2023/04/16 05:50:28;;;;;;;10.83;8.93;;;9.20;99.90;;;-141.84;100.00;18621.03;5031259;28;20577;-58
2023/04/16 05:52:56;;;;;;;10.13;9.07;;;9.20;99.90;;;-141.84;100.00;18606.81;5031279;28;20194;-59
2023/04/16 05:55:25;;;;;;;12.50;9.33;;;9.20;99.90;;;-141.84;100.00;18588.53;5031560;28;20630;-58
2023/04/16 05:57:53;;;;;;;11.00;9.10;;;9.20;99.90;;;-141.84;100.00;18608.84;5031408;28;20201;-61
2023/04/16 06:00:22;;;;;;;12.97;10.53;;;9.30;99.90;;;-141.84;100.00;18619.00;5069203;28;20668;-59
2023/04/16 06:02:51;;;;;;;11.57;9.10;;;9.30;99.90;;;-141.84;100.00;18598.69;5075632;28;20204;-59
2023/04/16 06:05:19;;;;;;;11.17;9.27;;;9.40;99.90;;;-141.84;100.00;18606.81;5075403;28;20570;-59
2023/04/16 06:07:48;;;;;;;10.37;8.17;;;9.40;99.90;;;-141.84;100.00;18627.13;5075637;28;20540;-60
2023/04/16 06:10:16;;;;;;;10.50;8.27;;;9.50;99.90;;;-141.84;100.00;18639.31;5075436;28;20201;-59
2023/04/16 06:12:44;;;;;;;9.30;8.07;;;9.50;99.90;;;-141.84;100.00;18627.13;5074935;28;20557;-59
2023/04/16 06:15:12;;;;;;;10.97;8.67;;;9.50;99.90;;;-141.84;100.00;18647.44;5060361;28;20294;-60
2023/04/16 06:17:42;;;;;;;8.93;7.93;;;9.50;99.90;;;-141.84;100.00;18639.31;5055040;28;20205;-60
2023/04/16 06:20:12;;;;;;;9.23;8.33;;;9.60;99.90;;;-141.84;100.00;18635.25;5055317;28;20212;-59
2023/04/16 06:22:40;;;;;;;8.20;7.40;;;9.60;99.90;;;-141.84;99.36;18669.78;5055024;28;20716;-59
2023/04/16 06:25:09;;;;;;;8.00;7.20;;;9.50;99.90;;;-141.84;98.91;18645.41;5055230;28;20202;-59
2023/04/16 06:27:38;;;;;;;10.40;9.30;;;9.50;99.90;;;-141.84;98.83;18633.22;5054976;28;20205;-59
2023/04/16 06:30:12;;;;;;;8.23;7.43;;;9.40;99.90;;;-141.84;99.05;18623.06;5071010;28;20213;-60
2023/04/16 06:32:42;;;;;;;8.97;7.80;;;9.40;99.90;;;-141.84;98.78;18643.38;5075078;28;20185;-60
2023/04/16 06:35:10;;;;;;;9.63;8.43;;;9.40;99.90;;;-141.84;98.80;18661.66;5074667;28;20331;-59
2023/04/16 06:37:38;;;;;;;8.50;7.20;;;9.30;99.90;;;-141.84;98.62;18631.19;5074987;28;20204;-59
2023/04/16 06:40:08;;;;;;;9.33;8.03;;;9.40;99.90;;;-141.84;98.46;18641.34;5074983;28;20201;-60
2023/04/16 06:42:36;;;;;;;9.10;8.10;;;9.40;99.90;;;-141.84;98.51;18635.25;5043768;28;20480;-60
2023/04/16 06:45:06;;;;;;;8.87;7.87;;;9.50;99.90;;;-141.84;98.39;18633.22;5035219;28;20398;-61
2023/04/16 06:47:34;;;;;;;8.23;7.33;;;9.50;99.90;;;-141.84;98.21;18619.00;5035184;28;20206;-61
2023/04/16 06:50:05;;;;;;;7.43;6.73;;;9.50;99.90;;;-141.84;98.21;18647.44;5035000;28;20219;-58
2023/04/16 06:52:33;;;;;;;7.20;6.50;;;9.50;99.90;;;-141.84;98.09;18635.25;5034613;28;20186;-59
2023/04/16 06:55:02;;;;;;;6.83;6.17;;;9.50;99.90;;;-141.84;98.27;18633.22;5034667;28;20222;-60
2023/04/16 06:57:30;;;;;;;7.07;6.37;;;9.50;99.90;;;-141.84;98.04;18631.19;5034660;28;20206;-59
2023/04/16 06:59:58;;;;;;;7.53;6.50;;;9.50;99.90;;;-141.84;98.08;18651.50;5064006;28;20208;-60
2023/04/16 07:02:27;;;;;;;6.83;6.23;;;9.50;99.90;;;-141.84;98.07;18621.03;5074145;28;20200;-60
2023/04/16 07:04:56;;;;;;;7.93;6.73;;;9.50;99.90;;;-141.84;98.27;18616.97;5074279;28;20201;-60
2023/04/16 07:07:26;;;;;;;6.70;6.00;;;9.50;99.90;;;-141.84;98.14;18647.44;5074432;28;20214;-58
2023/04/16 07:09:54;;;;;;;7.83;7.03;;;9.50;99.90;;;-141.84;98.25;18625.09;5074122;28;20668;-59
2023/04/16 07:12:22;;;;;;;8.20;7.40;;;9.50;99.90;;;-141.84;98.28;18631.19;5073578;28;20196;-60
2023/04/16 07:14:50;;;;;;;7.33;6.53;;;9.60;99.90;;;-141.84;98.22;18612.91;5062117;28;20222;-59
2023/04/16 07:17:19;;;;;;;9.00;7.70;;;9.60;99.90;;;-141.84;98.16;18627.13;5054455;28;20208;-60
2023/04/16 07:19:47;;;;;;;9.97;8.47;;;9.60;99.90;;;-141.84;98.03;18629.16;5054156;28;20216;-59
2023/04/16 07:22:15;;;;;;;7.47;6.77;;;9.70;99.90;;;-141.84;98.07;18671.81;5053909;28;20606;-60
2023/04/16 07:24:44;;;;;;;7.47;6.77;;;9.70;99.90;;;-141.84;97.96;18623.06;5053973;28;20202;-59
2023/04/16 07:27:13;;;;;;;7.27;6.57;;;9.70;99.90;;;-141.84;97.90;18629.16;5053787;28;20211;-59
2023/04/16 07:29:41;;;;;;;6.77;6.10;;;9.70;99.90;;;-141.84;97.98;18635.25;5062991;28;20235;-59
2023/04/16 07:32:09;;;;;;;6.80;6.10;;;9.70;99.90;;;-141.84;98.07;18606.81;5074001;28;20204;-62
2023/04/16 07:34:39;;;;;;;6.47;5.87;;;9.70;99.90;;;-141.84;97.78;18621.03;5073993;28;20221;-59
2023/04/16 07:37:07;;;;;;;6.97;6.27;;;9.70;99.90;;;-141.84;97.66;18641.34;5073906;28;20204;-61
2023/04/16 07:39:35;;;;;;;7.97;7.20;;;9.60;99.90;;;-141.84;97.27;18610.88;5073633;28;20215;-61
2023/04/16 07:42:05;;;;;;;7.97;7.07;;;9.70;99.90;;;-141.84;97.27;18651.50;5052266;28;20256;-60
2023/04/16 07:44:33;;;;;;;7.73;6.80;;;9.60;99.90;;;-141.84;97.26;18598.69;5033176;28;20702;-59
2023/04/16 07:47:02;;;;;;;6.77;6.10;;;9.60;99.90;;;-141.84;97.23;18641.34;5033493;28;20194;-60
2023/04/16 07:49:32;;;;;;;8.37;7.47;;;9.60;99.90;;;-141.84;95.96;18621.03;5033520;28;20214;-59
2023/04/16 07:52:01;;;;;;;8.80;7.90;;;9.70;99.90;;;-141.84;95.33;18614.94;5033088;28;20206;-60
2023/04/16 07:54:29;;;;;;;9.17;8.27;;;9.70;99.90;;;-141.84;95.12;18606.81;5033214;28;20550;-61
2023/04/16 07:56:57;;;;;;;10.83;9.73;;;9.60;99.90;;;-141.84;95.33;18643.38;5033208;28;20209;-61
2023/04/16 07:59:26;;;;;;;10.57;9.47;;;9.70;99.90;;;-141.84;95.18;18653.53;5035258;28;20202;-59
2023/04/16 08:01:55;;;;;;;11.13;10.03;;;9.70;99.90;;;-141.84;95.23;18627.13;5042139;28;20740;-60
2023/04/16 08:04:24;;;;;;;13.17;11.77;;;9.70;99.90;;;-141.84;95.10;18639.31;5038571;28;20267;-60
2023/04/16 08:06:54;;;;;;;10.80;9.67;;;9.70;99.90;;;-141.84;94.60;18647.44;5033109;28;20681;-59
2023/04/16 08:09:23;;;;;;;11.60;10.40;;;9.70;99.90;;;-141.84;94.14;18633.22;5033283;28;20286;-60
2023/04/16 08:11:51;;;;;;;12.10;10.80;;;9.80;99.90;;;-141.84;94.34;18631.19;5033395;28;20206;-60
2023/04/16 08:14:20;;;;;;;10.83;9.73;;;9.80;99.90;;;-141.84;94.54;18619.00;5032743;28;20213;-60
2023/04/16 08:16:50;;;;;;;12.70;11.40;;;9.70;99.90;;;-141.84;94.58;18651.50;5033124;28;20205;-61
2023/04/16 08:19:18;;;;;;;11.33;10.13;;;9.70;99.90;;;-141.84;94.37;18635.25;5033222;28;20284;-59
2023/04/16 08:21:47;;;;;;;12.30;11.00;;;9.70;99.90;;;-141.84;94.26;18621.03;5033101;28;20237;-60
2023/04/16 08:24:15;;;;;;;12.63;10.67;;;9.70;99.90;;;-141.84;94.04;18653.53;5032011;28;20205;-60
2023/04/16 08:26:43;;;;;;;12.07;10.87;;;9.80;99.90;;;-141.84;93.39;18647.44;5032802;28;20686;-59
2023/04/16 08:29:11;;;;;;;12.70;11.40;;;9.90;99.90;;;-141.84;92.76;18696.19;5049950;28;20219;-60
2023/04/16 08:31:41;;;;;;;11.80;10.60;;;10.00;99.90;;;-141.84;92.85;18679.94;5056131;28;20706;-60
2023/04/16 08:34:11;;;;;;;12.00;10.70;;;10.00;99.90;;;-141.84;93.40;18675.88;5051192;28;20211;-60
2023/04/16 08:36:40;;;;;;;12.03;10.83;;;10.00;99.90;;;-141.84;93.59;18665.72;5052833;28;20213;-60
2023/04/16 08:39:08;;;;;;;12.20;10.90;;;10.10;99.90;;;-141.84;93.95;18631.19;5052698;28;20570;-63
2023/04/16 08:41:42;;;;;;;16.67;13.90;;;10.10;99.90;;;-141.84;92.45;18698.22;5051246;28;20198;-60
2023/04/16 08:44:19;;;;;;;13.53;12.13;;;10.20;99.90;;;-141.84;91.14;18720.59;5032326;28;20244;-60
2023/04/16 08:46:47;;;;;;;18.03;16.03;;;10.10;99.90;;;-141.84;90.10;18720.59;5040421;28;20578;-60
2023/04/16 08:49:18;;;;;;;15.40;13.60;;;10.10;99.90;;;-141.84;90.46;18712.47;5052135;28;20615;-61
2023/04/16 08:51:53;;;;;;;14.73;13.13;;;10.10;99.90;;;-141.84;90.85;18704.31;5033088;28;20195;-62
2023/04/16 08:54:38;;;;;;;13.83;11.47;;;10.10;99.90;;;-141.84;89.24;18747.00;5032595;28;20182;-60
2023/04/16 08:57:10;;;;;;;14.70;11.87;;;10.20;99.90;;;-141.84;89.30;18744.97;5032519;28;20306;-61
2023/04/16 08:59:40;;;;;;;12.73;11.07;;;10.00;99.90;;;-141.84;90.28;18736.84;5032097;28;20186;-62
2023/04/16 09:02:12;;;;;;;14.90;11.40;;;10.00;99.90;;;-141.84;89.55;18755.13;5031854;28;20197;-62
2023/04/16 09:04:44;;;;;;;14.07;12.57;;;9.90;99.90;;;-141.84;89.00;18753.09;5046885;28;20687;-60
2023/04/16 09:07:13;;;;;;;13.90;12.40;;;9.90;99.90;;;-141.84;89.52;18793.72;5052246;28;20193;-60
2023/04/16 09:09:44;;;;;;;15.00;13.40;;;9.90;99.90;;;-141.84;89.77;18749.03;5050407;28;20197;-61
2023/04/16 09:12:12;;;;;;;14.83;11.60;;;9.90;99.90;;;-141.84;90.32;18740.91;5045150;28;20193;-62
2023/04/16 09:14:42;;;;;;;15.70;14.00;;;9.90;99.90;;;-141.84;91.27;18742.94;5042303;28;20205;-59
2023/04/16 09:17:12;;;;;;;15.23;13.13;;;9.90;99.90;;;-141.84;90.17;18761.22;5043367;28;20312;-60
2023/04/16 09:19:42;;;;;;;18.03;15.03;;;9.90;99.90;;;-141.84;90.07;18742.94;5051749;28;20205;-63
2023/04/16 09:22:11;;;;;;;15.77;13.17;;;10.00;99.90;;;-141.84;89.29;18773.41;5052041;28;20201;-60
2023/04/16 09:24:40;;;;;;;15.70;13.17;;;10.00;99.90;;;-141.84;89.23;18789.66;5051930;28;20205;-60
2023/04/16 09:27:09;;;;;;;32.37;22.40;;;10.00;99.90;;;-141.84;88.46;18844.53;5051819;28;20631;-61
2023/04/16 09:29:40;;;;;;;16.50;13.27;;;10.00;99.90;;;-141.84;88.29;18836.41;5051723;28;20198;-60
2023/04/16 09:32:10;;;;;;;16.20;13.10;;;10.10;99.90;;;-141.84;89.28;18783.56;5042426;28;20253;-61
2023/04/16 09:34:57;;;;;;;12.03;10.67;;;10.00;99.90;;;-141.84;88.96;18809.97;5035932;28;20198;-59
2023/04/16 09:37:28;;;;;;;11.77;10.60;;;10.00;99.90;;;-141.84;89.28;18777.47;5037150;28;20212;-59
2023/04/16 09:39:59;;;;;;;13.10;11.47;;;10.00;99.90;;;-141.84;89.00;18793.72;5040955;28;20198;-58
2023/04/16 09:42:30;;;;;;;11.27;10.07;;;10.00;99.90;;;-141.84;89.59;18799.81;5038992;28;20193;-57
2023/04/16 09:45:00;;;;;;;10.30;9.20;;;10.00;99.90;;;-141.84;90.36;18785.59;5044063;28;20223;-59
2023/04/16 09:47:44;;;;;;;11.00;9.90;;;9.90;99.90;;;-141.84;90.73;18777.47;5036468;28;20323;-60
2023/04/16 09:50:18;;;;;;;11.03;9.93;;;9.90;99.90;;;-141.84;91.12;18765.28;5043786;28;20236;-60
2023/04/16 09:52:50;;;;;;;11.40;10.20;;;9.90;99.90;;;-141.84;91.36;18716.53;5036877;28;20194;-62
2023/04/16 09:55:27;;;;;;;12.90;10.90;;;9.90;99.90;;;-141.84;92.11;18744.97;5040013;28;20674;-61
2023/04/16 09:58:00;;;;;;;11.50;10.37;;;9.90;99.90;;;-141.84;92.38;18769.34;5036498;28;20197;-58
2023/04/16 10:00:30;;;;;;;10.57;9.53;;;10.00;99.90;;;-141.84;90.73;18805.91;5036173;28;20600;-61
2023/04/16 10:03:05;;;;;;;9.83;8.93;;;10.20;99.90;;;-141.84;88.56;18797.78;5036001;28;20305;-59
2023/04/16 10:05:36;;;;;;;10.63;9.53;;;10.30;99.90;;;-141.84;88.59;18860.78;5041467;28;20208;-59